createdAt,value
2018-04-07T00:01:42.626Z,4.90
2018-04-07T00:04:08.973Z,4.70
2018-04-07T00:06:35.340Z,5.10
2018-04-07T00:09:01.795Z,5.10
2018-04-07T00:11:28.163Z,5.73
2018-04-07T00:13:54.545Z,4.77
2018-04-07T00:16:20.936Z,4.77
2018-04-07T00:18:47.290Z,4.57
2018-04-07T00:21:13.634Z,5.07
2018-04-07T00:23:40.122Z,6.10
2018-04-07T00:26:06.477Z,4.90
2018-04-07T00:28:32.955Z,4.50
2018-04-07T00:30:59.389Z,4.77
2018-04-07T00:33:25.749Z,4.47
2018-04-07T00:35:52.106Z,5.07
2018-04-07T00:38:18.488Z,6.33
2018-04-07T00:40:44.854Z,4.30
2018-04-07T00:43:11.330Z,4.07
2018-04-07T00:45:37.722Z,5.97
2018-04-07T00:48:04.101Z,4.00
2018-04-07T00:50:30.501Z,4.77
2018-04-07T00:52:57.833Z,5.13
2018-04-07T00:55:24.202Z,4.57
2018-04-07T00:57:50.637Z,4.53
2018-04-07T01:00:17.078Z,5.43
2018-04-07T01:02:43.441Z,4.73
2018-04-07T01:05:09.809Z,4.17
2018-04-07T01:07:37.130Z,5.53
2018-04-07T01:10:03.542Z,5.13
2018-04-07T01:12:29.962Z,4.23
2018-04-07T01:14:56.362Z,4.10
2018-04-07T01:17:22.797Z,5.70
2018-04-07T01:19:49.183Z,4.30
2018-04-07T01:22:15.601Z,4.83
2018-04-07T01:24:41.962Z,4.50
2018-04-07T01:27:08.342Z,4.63
2018-04-07T01:29:34.742Z,4.93
2018-04-07T01:32:01.121Z,5.70
2018-04-07T01:34:27.491Z,4.77
2018-04-07T01:36:53.849Z,4.37
2018-04-07T01:39:20.251Z,4.53
2018-04-07T01:41:46.686Z,4.57
2018-04-07T01:44:13.037Z,5.03
2018-04-07T01:46:39.465Z,5.03
2018-04-07T01:49:05.814Z,4.50
2018-04-07T01:51:32.181Z,4.77
2018-04-07T01:53:58.589Z,4.97
2018-04-07T01:56:24.954Z,5.33
2018-04-07T01:58:51.311Z,5.70
2018-04-07T02:01:17.684Z,7.60
2018-04-07T02:03:44.080Z,6.80
2018-04-07T02:06:10.473Z,6.43
2018-04-07T02:08:36.865Z,7.87
2018-04-07T02:11:03.263Z,6.47
2018-04-07T02:13:29.653Z,6.47
2018-04-07T02:15:56.061Z,6.53
2018-04-07T02:18:22.430Z,7.50
2018-04-07T02:20:48.819Z,7.33
2018-04-07T02:23:15.197Z,7.53
2018-04-07T02:25:41.585Z,7.20
2018-04-07T02:28:07.941Z,7.03
2018-04-07T02:30:34.462Z,8.17
2018-04-07T02:33:00.911Z,9.40
2018-04-07T02:35:27.215Z,8.73
2018-04-07T02:37:53.598Z,8.67
2018-04-07T02:40:20.006Z,7.73
2018-04-07T02:42:46.409Z,8.97
2018-04-07T02:45:12.807Z,8.60
2018-04-07T02:47:39.161Z,7.97
2018-04-07T02:50:05.589Z,7.70
2018-04-07T02:52:31.945Z,7.10
2018-04-07T02:54:58.301Z,8.13
2018-04-07T02:57:24.670Z,7.30
2018-04-07T02:59:51.051Z,9.53
2018-04-07T03:02:17.418Z,7.77
2018-04-07T03:04:43.798Z,8.07
2018-04-07T03:07:10.205Z,7.57
2018-04-07T03:09:36.545Z,7.37
2018-04-07T03:12:02.914Z,9.43
2018-04-07T03:14:29.332Z,10.23
2018-04-07T03:16:55.694Z,8.40
2018-04-07T03:19:22.049Z,9.43
2018-04-07T03:21:48.433Z,9.17
2018-04-07T03:24:14.782Z,8.57
2018-04-07T03:26:41.142Z,10.07
2018-04-07T03:29:07.553Z,8.50
2018-04-07T03:31:34.158Z,8.47
2018-04-07T03:34:00.564Z,13.77
2018-04-07T03:36:26.934Z,8.67
2018-04-07T03:38:53.284Z,9.60
2018-04-07T03:41:19.718Z,10.50
2018-04-07T03:43:46.065Z,10.53
2018-04-07T03:46:12.442Z,10.63
2018-04-07T03:48:38.857Z,9.80
2018-04-07T03:51:05.312Z,10.00
2018-04-07T03:53:31.801Z,8.83
2018-04-07T03:55:58.208Z,9.40
2018-04-07T03:58:24.578Z,9.43
2018-04-07T04:00:50.982Z,13.80
2018-04-07T04:03:17.406Z,10.47
2018-04-07T04:05:43.822Z,10.80
2018-04-07T04:08:10.161Z,11.03
2018-04-07T04:10:36.536Z,11.63
2018-04-07T04:13:02.942Z,10.07
2018-04-07T04:15:29.316Z,10.40
2018-04-07T04:17:55.705Z,11.10
2018-04-07T04:20:22.062Z,9.07
2018-04-07T04:22:48.489Z,10.27
2018-04-07T04:25:14.843Z,11.13
2018-04-07T04:27:41.254Z,16.93
2018-04-07T04:30:07.670Z,9.70
2018-04-07T04:32:34.019Z,10.27
2018-04-07T04:35:00.373Z,10.23
2018-04-07T04:37:26.801Z,9.30
2018-04-07T04:39:53.137Z,9.33
2018-04-07T04:42:19.485Z,10.80
2018-04-07T04:44:45.890Z,8.17
2018-04-07T04:47:12.346Z,7.57
2018-04-07T04:49:38.711Z,10.43
2018-04-07T04:52:05.141Z,8.87
2018-04-07T04:54:31.524Z,8.40
2018-04-07T04:56:57.886Z,7.83
2018-04-07T04:59:24.237Z,7.70
2018-04-07T05:01:50.581Z,9.70
2018-04-07T05:04:16.981Z,5.70
2018-04-07T05:06:43.362Z,9.37
2018-04-07T05:09:09.837Z,8.60
2018-04-07T05:11:36.194Z,6.03
2018-04-07T05:14:02.570Z,6.73
2018-04-07T05:16:29.030Z,6.30
2018-04-07T05:18:55.399Z,5.87
2018-04-07T05:21:21.782Z,7.03
2018-04-07T05:23:48.250Z,5.57
2018-04-07T05:26:14.630Z,5.10
2018-04-07T05:28:41.037Z,7.47
2018-04-07T05:31:07.458Z,10.33
2018-04-07T05:33:33.822Z,10.80
2018-04-07T05:36:00.183Z,7.50
2018-04-07T05:38:26.630Z,8.47
2018-04-07T05:40:52.987Z,11.60
2018-04-07T05:43:19.358Z,13.43
2018-04-07T05:45:45.754Z,10.37
2018-04-07T05:48:12.145Z,11.10
2018-04-07T05:50:38.497Z,11.17
2018-04-07T05:53:04.896Z,10.97
2018-04-07T05:55:31.246Z,10.57
2018-04-07T05:57:57.605Z,9.17
2018-04-07T06:00:23.966Z,10.73
2018-04-07T06:02:50.314Z,11.33
2018-04-07T06:05:16.677Z,10.87
2018-04-07T06:07:43.061Z,10.13
2018-04-07T06:10:09.418Z,8.90
2018-04-07T06:12:35.778Z,10.57
2018-04-07T06:15:02.173Z,10.00
2018-04-07T06:17:28.525Z,10.97
2018-04-07T06:19:54.865Z,10.33
2018-04-07T06:22:21.248Z,8.43
2018-04-07T06:24:47.629Z,10.10
2018-04-07T06:27:13.994Z,10.20
2018-04-07T06:29:40.350Z,7.80
2018-04-07T06:32:06.706Z,10.47
2018-04-07T06:34:33.091Z,8.97
2018-04-07T06:36:59.461Z,8.63
2018-04-07T06:39:25.825Z,8.83
2018-04-07T06:41:52.409Z,8.73
2018-04-07T06:44:18.766Z,8.20
2018-04-07T06:46:45.138Z,8.33
2018-04-07T06:49:11.497Z,9.40
2018-04-07T06:51:37.864Z,8.67
2018-04-07T06:54:04.221Z,11.10
2018-04-07T06:56:30.586Z,10.50
2018-04-07T06:58:56.949Z,11.63
2018-04-07T07:01:23.302Z,10.70
2018-04-07T07:03:49.646Z,13.17
2018-04-07T07:06:16.011Z,11.63
2018-04-07T07:08:42.682Z,9.90
2018-04-07T07:11:09.094Z,11.00
2018-04-07T07:13:35.470Z,10.17
2018-04-07T07:16:01.835Z,8.33
2018-04-07T07:18:28.249Z,8.20
2018-04-07T07:20:54.646Z,8.97
2018-04-07T07:23:20.985Z,7.07
2018-04-07T07:25:47.390Z,8.53
2018-04-07T07:28:13.745Z,8.00
2018-04-07T07:30:40.254Z,11.17
2018-04-07T07:33:06.605Z,10.07
2018-04-07T07:35:32.974Z,8.43
2018-04-07T07:37:59.337Z,6.90
2018-04-07T07:40:25.693Z,8.27
2018-04-07T07:42:52.055Z,8.40
2018-04-07T07:45:18.446Z,7.20
2018-04-07T07:47:44.817Z,10.03
2018-04-07T07:50:11.189Z,7.33
2018-04-07T07:52:37.524Z,6.73
2018-04-07T07:55:03.950Z,7.17
2018-04-07T07:57:30.366Z,6.37
2018-04-07T07:59:56.744Z,7.63
2018-04-07T08:02:23.112Z,7.73
2018-04-07T08:04:49.509Z,8.47
2018-04-07T08:07:15.883Z,7.17
2018-04-07T08:09:42.451Z,8.17
2018-04-07T08:12:08.825Z,5.80
2018-04-07T08:14:35.201Z,7.13
2018-04-07T08:17:01.657Z,7.70
2018-04-07T08:19:28.041Z,6.33
2018-04-07T08:21:54.394Z,6.60
2018-04-07T08:24:20.817Z,7.50
2018-04-07T08:26:47.302Z,10.80
2018-04-07T08:29:13.654Z,6.33
2018-04-07T08:31:40.085Z,5.70
2018-04-07T08:34:06.722Z,6.53
2018-04-07T08:36:33.157Z,7.33
2018-04-07T08:38:59.521Z,7.10
2018-04-07T08:41:25.877Z,6.83
2018-04-07T08:43:52.517Z,7.03
2018-04-07T08:46:18.865Z,6.73
2018-04-07T08:48:45.366Z,5.90
2018-04-07T08:51:11.717Z,6.70
2018-04-07T08:53:38.142Z,7.70
2018-04-07T08:56:04.521Z,6.27
2018-04-07T08:58:31.198Z,6.00
2018-04-07T09:00:57.556Z,7.13
2018-04-07T09:03:23.965Z,5.33
2018-04-07T09:05:50.333Z,6.63
2018-04-07T09:08:16.774Z,6.37
2018-04-07T09:10:43.145Z,5.97
2018-04-07T09:13:09.533Z,6.27
2018-04-07T09:15:35.901Z,6.40
2018-04-07T09:18:02.253Z,4.93
2018-04-07T09:20:28.613Z,5.47
2018-04-07T09:22:54.981Z,5.93
2018-04-07T09:25:21.368Z,6.20
2018-04-07T09:27:47.749Z,5.20
2018-04-07T09:30:14.130Z,6.33
2018-04-07T09:32:40.569Z,5.07
2018-04-07T09:35:06.921Z,4.80
2018-04-07T09:37:33.309Z,5.20
2018-04-07T09:39:59.669Z,7.50
2018-04-07T09:42:26.033Z,4.93
2018-04-07T09:44:52.396Z,4.60
2018-04-07T09:47:18.770Z,6.63
2018-04-07T09:49:45.133Z,6.33
2018-04-07T09:52:11.677Z,5.63
2018-04-07T09:54:38.210Z,9.77
2018-04-07T09:57:04.602Z,6.20
2018-04-07T09:59:31.058Z,7.57
2018-04-07T10:01:58.479Z,7.07
2018-04-07T10:04:24.932Z,7.30
2018-04-07T10:06:51.319Z,6.63
2018-04-07T10:09:17.773Z,5.10
2018-04-07T10:11:44.237Z,8.63
2018-04-07T10:14:10.634Z,7.37
2018-04-07T10:16:37.006Z,5.20
2018-04-07T10:19:03.412Z,4.73
2018-04-07T10:21:29.818Z,5.53
2018-04-07T10:23:56.193Z,8.17
2018-04-07T10:26:22.602Z,5.33
2018-04-07T10:28:48.965Z,5.87
2018-04-07T10:31:15.321Z,5.60
2018-04-07T10:33:41.731Z,5.80
2018-04-07T10:36:08.145Z,5.47
2018-04-07T10:38:34.566Z,4.70
2018-04-07T10:41:00.938Z,5.20
2018-04-07T10:43:27.293Z,3.90
2018-04-07T10:45:53.658Z,4.07
2018-04-07T10:48:20.025Z,3.60
2018-04-07T10:50:46.405Z,3.50
2018-04-07T10:53:12.790Z,3.17
2018-04-07T10:55:39.449Z,5.57
2018-04-07T10:58:05.786Z,3.50
2018-04-07T11:00:32.176Z,4.33
2018-04-07T11:02:58.528Z,6.73
2018-04-07T11:05:24.900Z,4.03
2018-04-07T11:07:51.269Z,4.80
2018-04-07T11:10:17.621Z,3.70
2018-04-07T11:12:44.087Z,3.40
2018-04-07T11:15:10.429Z,3.30
2018-04-07T11:17:36.849Z,4.27
2018-04-07T11:20:03.242Z,3.57
2018-04-07T11:22:29.629Z,3.87
2018-04-07T11:24:55.981Z,4.47
2018-04-07T11:27:22.353Z,4.93
2018-04-07T11:29:48.752Z,5.37
2018-04-07T11:32:15.134Z,4.03
2018-04-07T11:34:41.663Z,3.80
2018-04-07T11:37:08.077Z,4.50
2018-04-07T11:39:34.450Z,4.70
2018-04-07T11:42:00.829Z,3.90
2018-04-07T11:44:27.191Z,4.73
2018-04-07T11:46:53.665Z,3.70
2018-04-07T11:49:20.026Z,3.37
2018-04-07T11:51:46.661Z,3.97
2018-04-07T11:54:13.040Z,4.10
2018-04-07T11:56:39.518Z,4.30
2018-04-07T11:59:05.970Z,3.57
2018-04-07T12:01:32.409Z,5.67
2018-04-07T12:03:58.826Z,3.77
2018-04-07T12:06:25.597Z,3.53
2018-04-07T12:08:51.963Z,3.73
2018-04-07T12:11:18.349Z,3.80
2018-04-07T12:13:44.724Z,4.70
2018-04-07T12:16:11.149Z,5.53
2018-04-07T12:18:37.507Z,5.47
2018-04-07T12:21:03.902Z,4.83
2018-04-07T12:23:30.280Z,3.97
2018-04-07T12:25:56.690Z,5.37
2018-04-07T12:28:23.099Z,5.37
2018-04-07T12:30:49.489Z,6.50
2018-04-07T12:33:15.837Z,6.90
2018-04-07T12:35:42.230Z,8.03
2018-04-07T12:38:08.600Z,5.43
2018-04-07T12:40:34.970Z,6.07
2018-04-07T12:43:01.313Z,5.60
2018-04-07T12:45:27.668Z,5.00
2018-04-07T12:47:54.043Z,6.93
2018-04-07T12:50:20.394Z,5.50
2018-04-07T12:52:46.751Z,6.33
2018-04-07T12:55:13.110Z,4.73
2018-04-07T12:57:39.490Z,6.30
2018-04-07T13:00:05.896Z,6.37
2018-04-07T13:02:32.289Z,5.53
2018-04-07T13:04:58.685Z,6.27
2018-04-07T13:07:25.094Z,4.37
2018-04-07T13:09:51.627Z,7.03
2018-04-07T13:12:17.990Z,7.07
2018-04-07T13:14:44.369Z,6.30
2018-04-07T13:17:10.821Z,5.87
2018-04-07T13:19:37.246Z,6.80
2018-04-07T13:22:03.640Z,6.73
2018-04-07T13:24:30.169Z,6.40
2018-04-07T13:26:56.525Z,5.37
2018-04-07T13:29:22.953Z,4.20
2018-04-07T13:31:49.317Z,5.73
2018-04-07T13:34:15.724Z,6.00
2018-04-07T13:36:42.085Z,6.67
2018-04-07T13:39:08.581Z,5.87
2018-04-07T13:41:35.010Z,6.40
2018-04-07T13:44:01.414Z,5.53
2018-04-07T13:46:27.765Z,5.37
2018-04-07T13:48:54.127Z,4.50
2018-04-07T13:51:20.490Z,5.27
2018-04-07T13:53:46.847Z,4.20
2018-04-07T13:56:13.201Z,6.33
2018-04-07T13:58:39.553Z,6.67
2018-04-07T14:01:05.998Z,6.07
2018-04-07T14:03:32.365Z,4.97
2018-04-07T14:05:58.741Z,5.73
2018-04-07T14:08:25.106Z,5.30
2018-04-07T14:10:51.687Z,4.87
2018-04-07T14:13:18.037Z,5.00
2018-04-07T14:15:44.405Z,5.43
2018-04-07T14:18:10.792Z,4.10
2018-04-07T14:20:37.217Z,7.03
2018-04-07T14:23:03.566Z,5.80
2018-04-07T14:25:29.970Z,5.37
2018-04-07T14:27:56.339Z,5.00
2018-04-07T14:30:22.722Z,5.73
2018-04-07T14:32:49.077Z,7.07
2018-04-07T14:35:15.462Z,5.97
2018-04-07T14:37:41.843Z,5.00
2018-04-07T14:40:08.213Z,8.30
2018-04-07T14:42:34.798Z,10.27
2018-04-07T14:45:01.150Z,6.80
2018-04-07T14:47:27.507Z,7.80
2018-04-07T14:49:54.033Z,8.63
2018-04-07T14:52:20.416Z,5.20
2018-04-07T14:54:46.778Z,7.00
2018-04-07T14:57:13.138Z,7.73
2018-04-07T14:59:39.638Z,6.97
2018-04-07T15:02:06.017Z,9.33
2018-04-07T15:04:32.390Z,6.53
2018-04-07T15:06:58.746Z,8.60
2018-04-07T15:09:25.163Z,8.37
2018-04-07T15:11:51.518Z,9.30
2018-04-07T15:14:17.874Z,10.00
2018-04-07T15:16:44.541Z,8.87
2018-04-07T15:19:10.911Z,7.10
2018-04-07T15:21:37.242Z,6.70
2018-04-07T15:24:03.646Z,6.57
2018-04-07T15:26:29.996Z,6.87
2018-04-07T15:28:56.384Z,6.10
2018-04-07T15:31:22.740Z,7.90
2018-04-07T15:33:49.091Z,7.07
2018-04-07T15:36:15.423Z,5.47
2018-04-07T15:38:41.833Z,9.17
2018-04-07T15:41:08.188Z,11.03
2018-04-07T15:43:34.530Z,11.83
2018-04-07T15:46:00.882Z,11.53
2018-04-07T15:48:27.282Z,13.63
2018-04-07T15:50:53.837Z,10.23
2018-04-07T15:53:20.193Z,15.20
2018-04-07T15:55:46.561Z,10.07
2018-04-07T15:58:12.996Z,8.63
2018-04-07T16:00:39.336Z,7.60
2018-04-07T16:03:05.685Z,9.87
2018-04-07T16:05:32.070Z,7.37
2018-04-07T16:07:58.549Z,7.40
2018-04-07T16:10:24.935Z,6.80
2018-04-07T16:12:51.346Z,6.17
2018-04-07T16:15:17.813Z,6.97
2018-04-07T16:17:44.154Z,7.83
2018-04-07T16:20:10.713Z,8.73
2018-04-07T16:22:37.104Z,8.83
2018-04-07T16:25:03.479Z,7.57
2018-04-07T16:27:29.833Z,9.57
2018-04-07T16:29:56.249Z,8.80
2018-04-07T16:32:22.654Z,8.20
2018-04-07T16:34:49.045Z,6.73
2018-04-07T16:37:15.489Z,8.43
2018-04-07T16:39:41.925Z,9.83
2018-04-07T16:42:08.302Z,9.47
2018-04-07T16:44:34.670Z,7.60
2018-04-07T16:47:01.045Z,7.70
2018-04-07T16:49:27.381Z,7.30
2018-04-07T16:51:53.713Z,9.97
2018-04-07T16:54:20.090Z,7.30
2018-04-07T16:56:46.429Z,10.13
2018-04-07T16:59:12.807Z,8.70
2018-04-07T17:01:39.170Z,10.93
2018-04-07T17:04:05.526Z,8.40
2018-04-07T17:06:31.925Z,9.80
2018-04-07T17:08:58.269Z,8.67
2018-04-07T17:11:24.597Z,11.17
2018-04-07T17:13:50.998Z,10.37
2018-04-07T17:16:17.378Z,10.40
2018-04-07T17:18:43.730Z,9.03
2018-04-07T17:21:10.153Z,9.23
2018-04-07T17:23:36.543Z,10.43
2018-04-07T17:26:03.039Z,10.37
2018-04-07T17:28:29.401Z,9.23
2018-04-07T17:30:55.785Z,9.67
2018-04-07T17:33:22.286Z,10.60
2018-04-07T17:35:48.612Z,8.60
2018-04-07T17:38:14.984Z,11.63
2018-04-07T17:40:41.385Z,10.27
2018-04-07T17:43:07.713Z,12.33
2018-04-07T17:45:34.094Z,9.77
2018-04-07T17:48:00.549Z,13.50
2018-04-07T17:50:26.945Z,10.27
2018-04-07T17:52:53.293Z,12.13
2018-04-07T17:55:19.646Z,12.53
2018-04-07T17:57:46.028Z,9.73
2018-04-07T18:00:12.382Z,10.97
2018-04-07T18:02:38.742Z,10.77
2018-04-07T18:05:05.200Z,11.40
2018-04-07T18:07:31.850Z,11.83
2018-04-07T18:09:58.182Z,15.50
2018-04-07T18:12:24.510Z,12.20
2018-04-07T18:14:50.934Z,10.37
2018-04-07T18:17:17.266Z,13.03
2018-04-07T18:19:43.595Z,14.33
2018-04-07T18:22:10.222Z,12.03
2018-04-07T18:24:36.553Z,13.90
2018-04-07T18:27:02.882Z,13.03
2018-04-07T18:29:29.255Z,13.00
2018-04-07T18:31:55.598Z,14.13
2018-04-07T18:34:21.941Z,17.50
2018-04-07T18:36:48.273Z,16.87
2018-04-07T18:39:14.606Z,18.97
2018-04-07T18:41:40.966Z,16.47
2018-04-07T18:44:07.386Z,14.50
2018-04-07T18:46:33.718Z,14.70
2018-04-07T18:49:00.121Z,16.27
2018-04-07T18:51:26.532Z,13.33
2018-04-07T18:53:52.896Z,13.13
2018-04-07T18:56:19.234Z,12.60
2018-04-07T18:58:45.666Z,14.10
2018-04-07T19:01:12.097Z,15.13
2018-04-07T19:03:38.417Z,16.83
2018-04-07T19:06:04.829Z,15.87
2018-04-07T19:08:31.221Z,15.33
2018-04-07T19:10:57.609Z,14.23
2018-04-07T19:13:23.982Z,12.90
2018-04-07T19:15:50.334Z,12.17
2018-04-07T19:18:16.666Z,10.77
2018-04-07T19:20:43.081Z,9.53
2018-04-07T19:23:09.416Z,10.37
2018-04-07T19:25:35.747Z,13.10
2018-04-07T19:28:02.177Z,12.17
2018-04-07T19:30:28.574Z,11.43
2018-04-07T19:32:54.993Z,9.20
2018-04-07T19:35:21.406Z,9.07
2018-04-07T19:37:47.782Z,10.33
2018-04-07T19:40:14.262Z,8.33
2018-04-07T19:42:40.625Z,11.27
2018-04-07T19:45:06.954Z,8.23
2018-04-07T19:47:33.307Z,8.67
2018-04-07T19:49:59.662Z,11.03
2018-04-07T19:52:26.042Z,8.20
2018-04-07T19:54:52.462Z,9.00
2018-04-07T19:57:18.822Z,8.90
2018-04-07T19:59:45.189Z,8.43
2018-04-07T20:02:11.529Z,10.83
2018-04-07T20:04:37.909Z,7.70
2018-04-07T20:07:04.246Z,8.90
2018-04-07T20:09:30.578Z,8.20
2018-04-07T20:11:56.945Z,7.00
2018-04-07T20:14:23.278Z,9.13
2018-04-07T20:16:49.669Z,8.37
2018-04-07T20:19:16.107Z,7.87
2018-04-07T20:21:42.434Z,11.90
2018-04-07T20:24:08.761Z,9.07
2018-04-07T20:26:35.139Z,9.00
2018-04-07T20:29:01.474Z,9.47
2018-04-07T20:31:27.825Z,8.47
2018-04-07T20:33:54.206Z,9.37
2018-04-07T20:36:20.543Z,7.83
2018-04-07T20:38:46.898Z,12.53
2018-04-07T20:41:13.277Z,11.13
2018-04-07T20:43:39.609Z,8.70
2018-04-07T20:46:05.948Z,10.07
2018-04-07T20:48:32.325Z,10.67
2018-04-07T20:50:58.654Z,10.93
2018-04-07T20:53:25.085Z,7.37
2018-04-07T20:55:51.578Z,10.20
2018-04-07T20:58:18.240Z,9.37
2018-04-07T21:00:44.754Z,9.07
2018-04-07T21:03:11.138Z,7.63
2018-04-07T21:05:37.521Z,9.67
2018-04-07T21:08:03.902Z,8.77
2018-04-07T21:10:30.229Z,11.03
2018-04-07T21:12:56.621Z,12.40
2018-04-07T21:15:22.969Z,13.87
2018-04-07T21:17:49.366Z,12.33
2018-04-07T21:20:15.861Z,12.83
2018-04-07T21:22:42.252Z,18.33
2018-04-07T21:25:08.593Z,20.27
2018-04-07T21:27:35.005Z,18.77
2018-04-07T21:30:01.385Z,17.37
2018-04-07T21:32:27.765Z,16.20
2018-04-07T21:34:54.153Z,20.17
2018-04-07T21:37:20.477Z,18.23
2018-04-07T21:39:46.810Z,18.77
2018-04-07T21:42:13.178Z,13.63
2018-04-07T21:44:39.534Z,12.47
2018-04-07T21:47:05.873Z,16.80
2018-04-07T21:49:32.265Z,12.30
2018-04-07T21:51:58.613Z,9.47
2018-04-07T21:54:24.958Z,13.40
2018-04-07T21:56:51.477Z,10.50
2018-04-07T21:59:17.822Z,9.13
2018-04-07T22:01:44.177Z,14.20
2018-04-07T22:04:10.574Z,13.00
2018-04-07T22:06:36.946Z,11.87
2018-04-07T22:09:03.389Z,14.10
2018-04-07T22:11:29.836Z,11.13
2018-04-07T22:13:56.205Z,10.43
2018-04-07T22:16:22.545Z,9.43
2018-04-07T22:18:48.929Z,9.53
2018-04-07T22:21:15.358Z,9.80
2018-04-07T22:23:41.758Z,13.67
2018-04-07T22:26:08.158Z,11.80
2018-04-07T22:28:34.552Z,12.40
2018-04-07T22:31:01.071Z,13.70
2018-04-07T22:33:27.472Z,10.13
2018-04-07T22:35:53.893Z,12.30
2018-04-07T22:38:20.298Z,12.27
2018-04-07T22:40:46.644Z,12.27
2018-04-07T22:43:13.052Z,13.00
2018-04-07T22:45:39.409Z,15.77
2018-04-07T22:48:05.754Z,12.43
2018-04-07T22:50:32.118Z,12.00
2018-04-07T23:00:58.982Z,11.63
2018-04-07T23:03:25.426Z,12.03
2018-04-07T23:05:51.813Z,12.87
2018-04-07T23:08:18.197Z,11.57
2018-04-07T23:10:44.577Z,11.77
2018-04-07T23:13:10.963Z,15.60
2018-04-07T23:15:37.348Z,12.27
2018-04-07T23:18:03.712Z,15.73
2018-04-07T23:20:30.038Z,13.33
2018-04-07T23:22:56.422Z,13.50
2018-04-07T23:25:22.778Z,13.80
2018-04-07T23:27:49.133Z,13.53
2018-04-07T23:30:15.533Z,13.97
2018-04-07T23:32:41.925Z,13.63
2018-04-07T23:35:08.258Z,13.90
2018-04-07T23:37:34.651Z,12.73
2018-04-07T23:40:01.010Z,12.90
2018-04-07T23:42:27.438Z,11.73
2018-04-07T23:44:53.826Z,11.80
2018-04-07T23:47:20.286Z,12.37
2018-04-07T23:49:46.614Z,13.53
2018-04-07T23:52:13.021Z,12.00
2018-04-07T23:54:39.362Z,12.90
2018-04-07T23:57:05.722Z,14.27
2018-04-07T23:59:32.092Z,11.20
